createdAt,value
2019-05-12T05:08:54.947Z,59.20
2019-05-12T05:11:25.080Z,59.90
2019-05-12T05:13:54.845Z,59.40
2019-05-12T05:16:24.825Z,60.00
2019-05-12T05:18:54.324Z,59.70
2019-05-12T05:21:24.026Z,59.50
2019-05-12T05:23:53.672Z,59.40
2019-05-12T05:26:27.862Z,59.20
2019-05-12T05:28:54.267Z,59.40
2019-05-12T05:31:24.358Z,59.30
2019-05-12T05:33:53.708Z,58.90
2019-05-12T05:36:22.074Z,58.90
2019-05-12T05:38:50.951Z,58.90
2019-05-12T05:41:20.414Z,59.60
2019-05-12T05:43:53.326Z,59.20
2019-05-12T05:46:18.776Z,59.50
2019-05-12T05:48:47.067Z,60.50
2019-05-12T05:51:15.371Z,60.60
2019-05-12T05:53:44.337Z,59.30
2019-05-12T05:56:14.711Z,59.20
2019-05-12T05:58:46.898Z,58.60
2019-05-12T06:01:13.714Z,58.30
2019-05-12T06:03:44.146Z,58.10
2019-05-12T06:06:14.672Z,58.50
2019-05-12T06:08:44.474Z,58.50
2019-05-12T06:11:14.867Z,58.80
2019-05-12T06:13:44.337Z,58.30
2019-05-12T06:16:20.141Z,58.20
2019-05-12T06:18:43.973Z,58.40
2019-05-12T06:21:13.767Z,57.70
2019-05-12T06:23:43.502Z,57.80
2019-05-12T06:26:14.016Z,58.20
2019-05-12T06:28:43.986Z,58.10
2019-05-12T06:31:13.860Z,58.00
2019-05-12T06:33:44.548Z,57.70
2019-05-12T06:36:14.091Z,57.80
2019-05-12T06:38:43.448Z,57.80
2019-05-12T06:41:20.260Z,57.80
2019-05-12T06:43:44.739Z,57.00
2019-05-12T06:46:20.007Z,57.20
2019-05-12T06:48:43.337Z,57.00
2019-05-12T06:51:17.038Z,56.40
2019-05-12T06:53:44.208Z,56.70
2019-05-12T06:56:15.399Z,56.10
2019-05-12T06:58:44.256Z,55.00
2019-05-12T07:01:19.086Z,54.70
2019-05-12T07:03:44.043Z,54.90
2019-05-12T07:06:18.036Z,55.10
2019-05-12T07:08:43.864Z,54.10
2019-05-12T07:11:14.297Z,53.40
2019-05-12T07:13:43.613Z,52.90
2019-05-12T07:16:26.807Z,53.10
2019-05-12T07:18:48.291Z,52.00
2019-05-12T07:21:20.178Z,52.60
2019-05-12T07:23:46.716Z,52.00
2019-05-12T07:26:19.333Z,53.20
2019-05-12T07:28:45.454Z,51.70
2019-05-12T07:31:14.290Z,51.10
2019-05-12T07:33:45.684Z,50.90
2019-05-12T07:36:13.782Z,51.50
2019-05-12T07:38:43.386Z,51.60
2019-05-12T07:41:14.262Z,51.60
2019-05-12T07:43:44.145Z,51.70
2019-05-12T07:46:13.388Z,52.00
2019-05-12T07:48:46.595Z,51.80
2019-05-12T07:51:13.789Z,52.30
2019-05-12T07:54:55.990Z,51.60
2019-05-12T07:57:29.102Z,52.60
2019-05-12T07:59:57.416Z,53.60
2019-05-12T08:02:31.585Z,52.30
2019-05-12T08:04:55.808Z,51.40
2019-05-12T08:07:25.915Z,51.30
2019-05-12T08:09:54.285Z,51.00
2019-05-12T08:12:23.788Z,51.30
2019-05-12T08:14:54.056Z,50.80
2019-05-12T08:17:24.653Z,52.20
2019-05-12T08:19:53.652Z,53.20
2019-05-12T08:22:27.191Z,51.80
2019-05-12T08:24:53.738Z,51.00
2019-05-12T08:27:23.425Z,49.90
2019-05-12T08:30:00.824Z,51.30
2019-05-12T08:32:23.437Z,51.50
2019-05-12T08:34:54.083Z,52.20
2019-05-12T08:37:24.268Z,51.70
2019-05-12T08:40:02.681Z,52.10
2019-05-12T08:42:23.911Z,51.80
2019-05-12T08:44:54.227Z,52.00
2019-05-12T08:47:23.870Z,51.80
2019-05-12T08:49:58.351Z,52.20
2019-05-12T08:52:23.585Z,51.30
2019-05-12T08:54:53.596Z,51.60
2019-05-12T08:57:24.092Z,51.00
2019-05-12T08:59:56.765Z,51.20
2019-05-12T09:02:24.032Z,50.80
2019-05-12T09:07:35.921Z,51.80
2019-05-12T09:10:04.294Z,51.50
2019-05-12T09:12:33.766Z,52.30
2019-05-12T09:15:04.304Z,52.20
2019-05-12T09:17:34.685Z,52.20
2019-05-12T09:20:06.848Z,52.40
2019-05-12T09:22:34.296Z,53.00
2019-05-12T09:25:06.217Z,52.30
2019-05-12T09:27:33.535Z,52.70
2019-05-12T09:30:07.646Z,53.00
2019-05-12T09:32:33.893Z,52.20
2019-05-12T09:35:03.932Z,52.10
2019-05-12T09:37:39.095Z,52.90
2019-05-12T09:40:04.629Z,53.40
2019-05-12T09:42:33.457Z,52.70
2019-05-12T09:45:06.017Z,53.40
2019-05-12T09:47:34.139Z,53.40
2019-05-12T09:50:04.162Z,52.90
2019-05-12T09:52:33.374Z,54.00
2019-05-12T09:55:04.084Z,54.20
2019-05-12T09:57:40.457Z,54.80
2019-05-12T10:00:04.251Z,53.70
2019-05-12T10:02:32.007Z,52.70
2019-05-12T10:05:00.837Z,52.60
2019-05-12T10:07:29.435Z,52.50
2019-05-12T10:09:59.235Z,51.50
2019-05-12T10:12:29.711Z,52.50
2019-05-12T10:14:57.710Z,53.30
2019-05-12T10:17:30.027Z,53.10
2019-05-12T10:19:58.171Z,54.30
2019-05-12T10:22:30.015Z,52.80
2019-05-12T10:24:58.711Z,52.00
2019-05-12T10:27:31.875Z,53.30
2019-05-12T10:30:03.294Z,52.30
2019-05-12T10:32:28.008Z,53.70
2019-05-12T10:34:56.355Z,54.20
2019-05-12T10:37:29.202Z,54.20
2019-05-12T10:39:54.851Z,53.30
2019-05-12T10:42:24.322Z,53.60
2019-05-12T10:44:54.486Z,56.30
2019-05-12T10:47:23.907Z,57.80
2019-05-12T10:49:53.880Z,57.30
2019-05-12T10:52:24.281Z,56.80
2019-05-12T10:54:53.827Z,57.40
2019-05-12T10:57:22.296Z,56.80
2019-05-12T10:59:50.629Z,55.80
2019-05-12T11:02:25.272Z,56.40
2019-05-12T11:04:54.133Z,57.00
2019-05-12T11:07:22.871Z,56.70
2019-05-12T11:09:54.316Z,56.10
2019-05-12T11:12:25.139Z,57.70
2019-05-12T11:14:54.097Z,58.00
2019-05-12T11:17:24.514Z,56.70
2019-05-12T11:19:54.162Z,54.90
2019-05-12T11:22:23.017Z,54.50
2019-05-12T11:24:53.507Z,55.10
2019-05-12T11:27:23.958Z,55.60
2019-05-12T11:29:53.405Z,54.40
2019-05-12T11:32:23.231Z,56.30
2019-05-12T11:34:53.705Z,55.60
2019-05-12T11:37:25.074Z,56.40
2019-05-12T11:40:04.258Z,56.90
2019-05-12T11:42:30.531Z,57.50
2019-05-12T11:44:58.885Z,56.70
2019-05-12T11:47:27.722Z,57.40
2019-05-12T11:50:03.404Z,56.60
2019-05-12T11:52:29.274Z,53.70
2019-05-12T11:55:01.561Z,54.00
2019-05-12T11:57:30.480Z,53.80
2019-05-12T12:00:02.032Z,57.00
2019-05-12T12:02:30.659Z,57.80
2019-05-12T12:04:59.012Z,53.90
2019-05-12T12:07:27.398Z,53.00
2019-05-12T12:09:59.271Z,52.90
2019-05-12T12:12:29.413Z,51.80
2019-05-12T12:14:57.876Z,50.90
2019-05-12T12:17:31.087Z,53.70
2019-05-12T12:19:56.383Z,53.00
2019-05-12T12:22:28.157Z,51.30
2019-05-12T12:24:54.866Z,50.20
2019-05-12T12:27:23.505Z,50.90
2019-05-12T12:29:54.261Z,50.70
2019-05-12T12:32:23.281Z,51.00
2019-05-12T12:34:54.286Z,54.70
2019-05-12T12:37:24.063Z,51.70
2019-05-12T12:39:53.637Z,50.80
2019-05-12T12:42:24.121Z,51.10
2019-05-12T12:44:53.526Z,50.50
2019-05-12T12:47:23.798Z,49.10
2019-05-12T12:49:52.297Z,49.80
2019-05-12T12:52:20.710Z,49.80
2019-05-12T12:54:49.117Z,50.60
2019-05-12T12:57:19.194Z,51.40
2019-05-12T12:59:51.185Z,50.60
2019-05-12T13:02:17.839Z,50.50
2019-05-12T13:04:50.281Z,51.40
2019-05-12T13:07:16.412Z,51.30
2019-05-12T13:09:44.876Z,51.40
2019-05-12T13:12:15.971Z,54.00
2019-05-12T13:14:44.344Z,53.50
2019-05-12T13:17:14.139Z,52.70
2019-05-12T13:19:43.670Z,53.30
2019-05-12T13:22:14.978Z,53.30
2019-05-12T13:24:43.978Z,53.10
2019-05-12T13:27:14.164Z,52.50
2019-05-12T13:29:43.155Z,51.40
2019-05-12T13:32:13.613Z,50.30
2019-05-12T13:34:42.995Z,50.70
2019-05-12T13:37:16.941Z,51.10
2019-05-12T13:39:49.013Z,50.90
2019-05-12T13:42:13.644Z,50.60
2019-05-12T13:44:43.637Z,49.50
2019-05-12T13:47:14.057Z,49.40
2019-05-12T13:49:46.785Z,49.90
2019-05-12T13:52:13.359Z,50.30
2019-05-12T13:54:43.729Z,49.90
2019-05-12T13:57:13.399Z,50.10
2019-05-12T13:59:43.521Z,51.60
2019-05-12T14:02:13.979Z,50.50
2019-05-12T14:04:44.225Z,49.50
2019-05-12T14:07:17.745Z,50.30
2019-05-12T14:09:43.687Z,49.80
2019-05-12T14:12:13.592Z,49.20
2019-05-12T14:14:43.613Z,48.90
2019-05-12T14:17:14.674Z,48.80
2019-05-12T14:19:43.722Z,49.60
2019-05-12T14:22:20.970Z,49.20
2019-05-12T14:24:46.726Z,50.50
2019-05-12T14:27:12.912Z,48.40
2019-05-12T14:29:41.309Z,47.60
2019-05-12T14:32:12.294Z,48.20
2019-05-12T14:34:43.380Z,48.20
2019-05-12T14:37:14.748Z,49.40
2019-05-12T14:39:46.236Z,49.70
2019-05-12T14:42:13.860Z,49.80
2019-05-12T14:44:45.024Z,49.00
2019-05-12T14:47:12.364Z,48.80
2019-05-12T14:49:40.759Z,51.00
2019-05-12T14:52:09.120Z,49.20
2019-05-12T14:54:37.498Z,48.80
2019-05-12T14:57:06.298Z,51.10
2019-05-12T14:59:40.826Z,57.30
2019-05-12T15:02:06.195Z,49.50
2019-05-12T15:04:34.851Z,49.60
2019-05-12T15:07:08.127Z,49.40
2019-05-12T15:09:34.106Z,49.10
2019-05-12T15:12:03.605Z,48.90
2019-05-12T15:14:36.294Z,48.60
2019-05-12T15:17:03.709Z,49.30
2019-05-12T15:19:33.445Z,49.20
2019-05-12T15:22:07.657Z,50.20
2019-05-12T15:24:33.707Z,49.00
2019-05-12T15:27:03.877Z,50.10
2019-05-12T15:29:33.838Z,50.20
2019-05-12T15:32:03.986Z,49.70
2019-05-12T15:34:33.768Z,48.00
2019-05-12T15:37:04.122Z,49.30
2019-05-12T15:39:33.566Z,49.30
2019-05-12T15:42:03.487Z,52.00
2019-05-12T15:44:34.606Z,51.40
2019-05-12T15:47:03.836Z,50.40
2019-05-12T15:49:33.659Z,51.80
2019-05-12T15:52:03.545Z,50.00
2019-05-12T15:54:35.804Z,50.40
2019-05-12T15:57:04.136Z,48.00
2019-05-12T15:59:34.319Z,47.00
2019-05-12T16:02:12.333Z,49.90
2019-05-12T16:04:34.588Z,47.70
2019-05-12T16:07:03.936Z,47.80
2019-05-12T16:09:34.439Z,50.00
2019-05-12T16:12:09.349Z,48.90
2019-05-12T16:14:36.945Z,46.60
2019-05-12T16:17:06.278Z,47.60
2019-05-12T16:19:34.507Z,45.90
2019-05-12T16:22:03.645Z,46.10
2019-05-12T16:24:34.064Z,49.00
2019-05-12T16:27:03.617Z,54.60
2019-05-12T16:29:33.959Z,47.60
2019-05-12T16:32:04.351Z,48.70
2019-05-12T16:34:36.101Z,47.20
2019-05-12T16:37:31.161Z,48.30
2019-05-12T16:39:54.565Z,46.90
2019-05-12T16:42:23.606Z,46.80
2019-05-12T16:44:56.065Z,47.60
2019-05-12T16:47:27.290Z,49.30
2019-05-12T16:49:54.061Z,48.30
2019-05-12T16:52:24.269Z,47.00
2019-05-12T16:54:54.113Z,48.00
2019-05-12T16:57:23.000Z,46.80
2019-05-12T16:59:55.995Z,46.50
2019-05-12T17:02:23.531Z,49.40
2019-05-12T17:04:54.018Z,46.40
2019-05-12T17:07:27.167Z,46.10
2019-05-12T17:09:55.494Z,46.30
2019-05-12T17:12:31.903Z,45.20
2019-05-12T17:14:54.290Z,45.10
2019-05-12T17:17:24.615Z,46.20
2019-05-12T17:19:53.988Z,46.60
2019-05-12T17:22:23.920Z,44.70
2019-05-12T17:24:56.477Z,44.70
2019-05-12T17:27:27.324Z,45.20
2019-05-12T17:29:55.076Z,44.80
2019-05-12T17:32:23.869Z,44.70
2019-05-12T17:34:53.297Z,44.20
2019-05-12T17:37:23.817Z,45.00
2019-05-12T17:39:52.563Z,45.00
2019-05-12T17:42:24.097Z,44.80
2019-05-12T17:44:51.053Z,44.70
2019-05-12T17:47:25.860Z,45.60
2019-05-12T17:49:49.499Z,45.80
2019-05-12T17:52:18.718Z,45.20
2019-05-12T17:54:47.099Z,44.80
2019-05-12T17:57:19.776Z,45.20
2019-05-12T17:59:45.511Z,44.80
2019-05-12T18:02:16.728Z,44.90
2019-05-12T18:04:44.079Z,46.00
2019-05-12T18:07:18.897Z,45.20
2019-05-12T18:09:44.154Z,45.20
2019-05-12T18:12:13.834Z,45.50
2019-05-12T18:14:50.330Z,45.90
2019-05-12T18:17:14.263Z,46.30
2019-05-12T18:19:44.408Z,46.10
2019-05-12T18:22:14.209Z,46.70
2019-05-12T18:24:49.426Z,46.50
2019-05-12T18:27:13.641Z,46.80
2019-05-12T18:29:44.128Z,46.40
2019-05-12T18:32:13.835Z,46.70
2019-05-12T18:34:44.603Z,46.70
2019-05-12T18:37:13.605Z,46.70
2019-05-12T18:39:48.964Z,47.20
2019-05-12T18:42:17.314Z,46.80
2019-05-12T18:44:45.682Z,47.10
2019-05-12T18:47:16.803Z,47.60
2019-05-12T18:49:47.762Z,47.80
2019-05-12T18:52:14.700Z,47.90
2019-05-12T18:54:52.073Z,48.10
2019-05-12T18:57:13.350Z,48.30
2019-05-12T18:59:48.463Z,48.50
2019-05-12T19:02:14.737Z,48.70
2019-05-12T19:04:44.192Z,48.90
2019-05-12T19:07:11.955Z,49.00
2019-05-12T19:09:40.377Z,49.30
2019-05-12T19:12:15.689Z,49.70
2019-05-12T19:14:40.394Z,49.60
2019-05-12T19:17:09.257Z,50.10
2019-05-12T19:19:37.945Z,50.00
2019-05-12T19:22:09.550Z,50.10
2019-05-12T19:24:36.478Z,50.40
2019-05-12T19:27:04.814Z,50.70
2019-05-12T19:29:38.670Z,51.20
2019-05-12T19:32:04.508Z,51.00
2019-05-12T19:34:37.449Z,51.00
2019-05-12T19:37:03.333Z,51.10
2019-05-12T19:39:34.007Z,51.10
2019-05-12T19:42:03.736Z,51.20
2019-05-12T19:44:34.121Z,51.10
2019-05-12T19:47:02.283Z,51.50
2019-05-12T19:49:45.892Z,51.50
2019-05-12T19:52:00.662Z,51.60
2019-05-12T19:54:30.295Z,51.80
2019-05-12T19:56:59.056Z,51.80
2019-05-12T19:59:27.394Z,51.80
2019-05-12T20:01:55.853Z,51.80
2019-05-12T20:04:33.397Z,51.90
2019-05-12T20:06:54.548Z,51.90
2019-05-12T20:09:24.326Z,51.90
2019-05-12T20:11:53.689Z,52.10
2019-05-12T20:14:24.122Z,52.80
2019-05-12T20:16:54.422Z,52.40
2019-05-12T20:19:25.345Z,52.20
2019-05-12T20:21:54.336Z,52.30
2019-05-12T20:24:23.734Z,52.20
2019-05-12T20:26:53.757Z,52.30
2019-05-12T20:29:24.547Z,52.40
2019-05-12T20:31:53.760Z,52.50
2019-05-12T20:34:24.468Z,52.50
2019-05-12T20:36:53.685Z,52.70
2019-05-12T20:39:24.579Z,53.30
2019-05-12T20:41:54.592Z,52.70
2019-05-12T20:44:23.784Z,53.00
2019-05-12T20:46:56.141Z,53.20
2019-05-12T20:49:24.247Z,54.00
2019-05-12T20:51:55.197Z,53.20
2019-05-12T20:54:23.911Z,53.00
2019-05-12T20:57:01.866Z,52.90
2019-05-12T20:59:27.925Z,53.10
